Time;durP1;ratioP1;P1;durP2;ratioP2;P2;SDS_P1;SDS_P2;PMS_P1;PMS_P2;Temp;Humidity;BMP_temperature;BMP_pressure;BME280_temperature;BME280_humidity;BME280_pressure;Samples;Min_cycle;Max_cycle;Signal;HPM_P1;HPM_P2
2021/08/21 00:00:48;;;;;;;20.00;10.98;;;;;;;19.08;75.71;101827.66;5083173;28;20130;-62
2021/08/21 00:03:16;;;;;;;15.68;10.40;;;;;;;19.29;75.30;101834.16;5083205;27;20254;-62
2021/08/21 00:05:43;;;;;;;19.27;11.15;;;;;;;19.46;74.57;101825.00;5087218;28;20135;-62
2021/08/21 00:08:10;;;;;;;20.02;11.32;;;;;;;19.19;75.28;101829.09;5079768;28;20053;-62
2021/08/21 00:10:37;;;;;;;16.08;11.00;;;;;;;19.03;75.76;101830.03;5086698;28;20109;-61
2021/08/21 00:13:03;;;;;;;19.60;12.27;;;;;;;19.03;76.50;101830.03;5078977;28;20058;-61
2021/08/21 00:15:30;;;;;;;15.73;11.73;;;;;;;18.92;76.89;101835.78;5085343;28;20622;-60
2021/08/21 00:17:57;;;;;;;17.58;10.75;;;;;;;18.87;77.17;101825.66;5073907;28;20403;-61
2021/08/21 00:20:23;;;;;;;19.95;11.60;;;;;;;19.28;74.56;101820.03;5091497;28;20050;-60
2021/08/21 00:22:50;;;;;;;16.67;11.45;;;;;;;19.19;74.86;101829.09;5087752;28;20585;-60
2021/08/21 00:25:16;;;;;;;18.75;11.98;;;;;;;19.25;74.65;101822.22;5086311;28;20139;-59
2021/08/21 00:27:43;;;;;;;17.00;11.65;;;;;;;19.02;75.38;101823.06;5093780;27;20052;-60
2021/08/21 00:30:11;;;;;;;19.60;11.68;;;;;;;18.98;75.86;101828.94;5079272;28;20079;-61
2021/08/21 00:32:37;;;;;;;15.00;10.98;;;;;;;19.12;74.78;101828.97;5086757;28;20134;-60
2021/08/21 00:35:05;;;;;;;17.80;11.55;;;;;;;19.24;74.12;101833.88;5090622;28;20572;-60
2021/08/21 00:37:32;;;;;;;17.48;11.40;;;;;;;19.24;74.32;101826.72;5091742;28;20052;-61
2021/08/21 00:39:58;;;;;;;16.83;12.23;;;;;;;19.40;73.41;101832.91;5091541;28;20047;-60
2021/08/21 00:42:25;;;;;;;17.63;11.93;;;;;;;19.06;74.42;101834.19;5082260;28;20508;-61
2021/08/21 00:44:51;;;;;;;16.58;11.32;;;;;;;18.93;74.96;101824.97;5085244;28;20079;-61
2021/08/21 00:47:20;;;;;;;19.15;11.75;;;;;;;18.86;75.47;101828.50;5076128;28;20475;-59
2021/08/21 00:49:49;;;;;;;19.77;12.25;;;;;;;18.81;76.05;101812.25;5086343;28;20551;-59
2021/08/21 00:52:22;;;;;;;19.15;11.88;;;;;;;18.77;75.87;101815.22;5076148;28;20048;-61
2021/08/21 00:54:49;;;;;;;17.05;11.38;;;;;;;18.78;75.27;101808.91;5089400;28;20135;-61
2021/08/21 00:57:17;;;;;;;19.17;12.32;;;;;;;18.69;75.43;101814.47;5092586;28;20062;-61
2021/08/21 00:59:45;;;;;;;19.15;11.40;;;;;;;18.68;75.29;101818.09;5083268;28;20626;-61
2021/08/21 01:02:13;;;;;;;16.55;10.88;;;;;;;18.66;75.57;101814.78;5087563;28;20266;-60
2021/08/21 01:04:42;;;;;;;17.88;11.73;;;;;;;18.61;75.82;101811.84;5092120;27;20158;-60
2021/08/21 01:07:10;;;;;;;17.55;11.40;;;;;;;18.55;76.03;101813.38;5091495;27;20092;-57
2021/08/21 01:09:41;;;;;;;16.23;11.70;;;;;;;18.47;76.13;101811.59;5079615;28;20402;-60
2021/08/21 01:12:11;;;;;;;17.77;12.30;;;;;;;18.49;76.37;101817.56;5087939;28;20167;-60
2021/08/21 01:14:37;;;;;;;19.80;11.95;;;;;;;18.89;74.72;101815.66;5089311;28;20144;-61
2021/08/21 01:17:05;;;;;;;18.10;11.82;;;;;;;18.85;74.46;101816.22;5092821;28;20644;-60
2021/08/21 01:19:40;;;;;;;20.13;12.10;;;;;;;18.91;74.62;101808.34;5094020;28;20127;-60
2021/08/21 01:22:12;;;;;;;16.77;11.38;;;;;;;17.68;79.54;101808.88;5088267;28;20560;-59
2021/08/21 01:24:39;;;;;;;18.23;11.98;;;;;;;17.14;83.36;101817.38;5087798;28;20079;-60
2021/08/21 01:27:06;;;;;;;17.90;11.77;;;;;;;16.86;85.82;101811.56;5091412;27;20087;-57
2021/08/21 01:29:33;;;;;;;19.90;11.57;;;;;;;16.69;86.88;101821.25;5094883;28;20044;-60
2021/08/21 01:31:59;;;;;;;17.15;11.10;;;;;;;16.55;87.28;101819.25;5090090;28;20130;-59
2021/08/21 01:34:26;;;;;;;18.13;12.07;;;;;;;16.43;88.18;101809.97;5090980;28;20091;-61
2021/08/21 01:36:52;;;;;;;15.20;10.40;;;;;;;16.41;89.00;101824.16;5095807;28;20495;-59
2021/08/21 01:39:19;;;;;;;16.67;11.40;;;;;;;16.36;89.77;101817.69;5086689;28;20131;-61
2021/08/21 01:41:46;;;;;;;18.45;12.20;;;;;;;16.32;90.20;101822.47;5098492;28;20801;-61
2021/08/21 01:44:16;;;;;;;21.63;12.10;;;;;;;16.29;89.98;101808.72;5089740;28;20139;-61
2021/08/21 01:46:46;;;;;;;21.77;12.07;;;;;;;16.30;90.92;101808.56;5097724;28;20147;-58
2021/08/21 01:49:14;;;;;;;17.70;11.52;;;;;;;16.28;91.08;101807.91;5084054;28;20237;-61
2021/08/21 01:51:43;;;;;;;18.83;11.45;;;;;;;16.30;91.00;101810.41;5089418;28;20129;-60
2021/08/21 01:54:20;;;;;;;17.40;10.60;;;;;;;16.32;88.85;101808.41;5074235;28;20151;-61
2021/08/21 01:57:01;;;;;;;15.95;11.18;;;;;;;16.30;90.09;101805.91;5086219;28;20359;-60
2021/08/21 01:59:31;;;;;;;17.02;11.25;;;;;;;16.26;89.79;101812.53;5089117;27;20083;-60
2021/08/21 02:01:58;;;;;;;16.45;11.30;;;;;;;16.19;90.50;101808.84;5090647;28;20736;-60
2021/08/21 02:04:25;;;;;;;15.77;10.10;;;;;;;16.06;89.96;101811.94;5103177;28;20095;-61
2021/08/21 02:06:55;;;;;;;19.05;11.45;;;;;;;15.96;91.80;101812.06;5084167;28;20134;-61
2021/08/21 02:09:24;;;;;;;16.10;11.07;;;;;;;15.92;92.66;101810.72;5088637;28;20088;-61
2021/08/21 02:11:52;;;;;;;22.10;11.88;;;;;;;15.95;92.37;101818.34;5094167;28;20091;-60
2021/08/21 02:14:19;;;;;;;18.92;12.07;;;;;;;15.93;92.10;101809.72;5091878;28;20452;-61
2021/08/21 02:16:51;;;;;;;20.75;11.93;;;;;;;15.95;92.85;101810.41;5096937;28;20123;-61
2021/08/21 02:19:22;;;;;;;15.75;10.55;;;;;;;15.96;91.82;101811.25;5080366;28;20146;-61
2021/08/21 02:21:51;;;;;;;16.15;10.50;;;;;;;15.89;91.88;101810.22;5088990;28;20128;-58
2021/08/21 02:24:24;;;;;;;16.63;10.52;;;;;;;15.88;91.95;101808.56;5070575;28;20162;-60
2021/08/21 02:26:57;;;;;;;21.63;10.82;;;;;;;15.80;92.61;101814.63;5097791;28;20454;-61
2021/08/21 02:29:25;;;;;;;15.98;10.50;;;;;;;15.88;92.09;101808.56;5084936;28;20083;-60
2021/08/21 02:31:55;;;;;;;17.67;11.20;;;;;;;15.90;92.74;101814.53;5081264;28;20138;-61
2021/08/21 02:34:22;;;;;;;16.60;10.93;;;;;;;15.95;91.91;101823.63;5081331;28;20083;-60
2021/08/21 02:36:50;;;;;;;18.08;10.43;;;;;;;15.82;93.17;101815.31;5065650;28;20051;-61
2021/08/21 02:39:16;;;;;;;16.35;9.95;;;;;;;15.80;94.44;101812.81;5090887;28;20377;-61
2021/08/21 02:41:43;;;;;;;14.93;9.82;;;;;;;15.82;93.79;101812.66;5090755;28;20166;-60
2021/08/21 02:44:09;;;;;;;16.20;10.02;;;;;;;15.81;92.49;101813.63;5099614;28;20138;-61
2021/08/21 02:46:36;;;;;;;14.98;9.98;;;;;;;15.78;92.50;101800.75;5091186;28;20506;-61
2021/08/21 02:49:02;;;;;;;14.57;9.20;;;;;;;15.75;92.60;101811.63;5095575;28;20875;-61
2021/08/21 02:51:29;;;;;;;19.30;9.82;;;;;;;15.74;93.32;101802.88;5098275;28;20088;-61
2021/08/21 02:53:55;;;;;;;14.25;9.45;;;;;;;15.78;92.18;101798.91;5088352;28;20103;-61
2021/08/21 02:56:21;;;;;;;13.90;9.27;;;;;;;15.78;92.94;101804.22;5089453;28;20130;-60
2021/08/21 02:58:48;;;;;;;15.27;9.70;;;;;;;15.76;92.29;101805.34;5095930;27;20146;-61
2021/08/21 03:01:14;;;;;;;15.10;9.32;;;;;;;15.78;92.06;101801.56;5089892;28;20082;-61
2021/08/21 03:03:41;;;;;;;13.60;9.07;;;;;;;15.78;91.01;101800.75;5089880;28;20086;-59
2021/08/21 03:06:07;;;;;;;12.82;8.77;;;;;;;15.73;91.28;101800.38;5088280;28;20052;-61
2021/08/21 03:08:34;;;;;;;13.73;8.88;;;;;;;15.73;92.35;101795.91;5099308;28;20087;-61
2021/08/21 03:11:00;;;;;;;13.15;8.88;;;;;;;15.75;91.90;101801.03;5086907;28;20555;-61
2021/08/21 03:13:27;;;;;;;13.25;8.60;;;;;;;15.77;92.64;101799.88;5095909;28;20051;-60
2021/08/21 03:15:54;;;;;;;14.70;8.77;;;;;;;15.73;92.95;101798.53;5079015;28;20483;-61
2021/08/21 03:18:20;;;;;;;14.63;8.75;;;;;;;15.75;93.30;101807.16;5091443;28;20134;-60
2021/08/21 03:20:47;;;;;;;14.52;9.07;;;;;;;15.78;93.67;101809.50;5077312;28;20088;-61
2021/08/21 03:23:13;;;;;;;18.23;10.05;;;;;;;15.78;94.72;101801.56;5097325;28;20051;-60
2021/08/21 03:25:40;;;;;;;14.45;9.15;;;;;;;15.82;94.62;101804.72;5097010;27;20153;-59
2021/08/21 03:28:06;;;;;;;14.07;8.65;;;;;;;15.88;93.11;101809.38;5087433;28;20065;-60
2021/08/21 03:30:33;;;;;;;16.80;9.30;;;;;;;15.85;93.79;101812.34;5077808;28;20278;-61
2021/08/21 03:32:59;;;;;;;14.68;9.57;;;;;;;15.98;93.24;101804.81;5085633;28;20089;-60
2021/08/21 03:35:25;;;;;;;21.55;10.10;;;;;;;15.94;93.56;101805.28;5098178;28;20424;-61
2021/08/21 03:37:53;;;;;;;17.58;10.38;;;;;;;16.05;93.83;101806.81;5086876;28;20154;-61
2021/08/21 03:40:20;;;;;;;20.00;10.75;;;;;;;16.13;93.28;101798.91;5086816;28;20159;-61
2021/08/21 03:42:46;;;;;;;15.13;10.70;;;;;;;16.16;93.86;101799.41;5091817;28;20079;-60
2021/08/21 03:45:13;;;;;;;20.08;10.60;;;;;;;16.08;94.64;101801.22;5090923;28;20079;-59
2021/08/21 03:47:39;;;;;;;19.40;11.98;;;;;;;16.17;95.32;101801.09;5089917;28;20146;-58
2021/08/21 03:50:08;;;;;;;17.70;10.70;;;;;;;16.24;95.77;101795.97;5092286;28;20132;-61
2021/08/21 03:52:35;;;;;;;19.98;10.73;;;;;;;16.19;95.16;101800.91;5094814;28;20086;-61
2021/08/21 03:55:01;;;;;;;15.75;10.25;;;;;;;16.20;95.38;101794.63;5095440;28;20155;-61
2021/08/21 03:57:28;;;;;;;18.33;9.70;;;;;;;16.31;94.82;101788.25;5092624;27;20135;-61
2021/08/21 03:59:54;;;;;;;15.20;9.45;;;;;;;16.40;95.33;101793.38;5099729;28;20147;-61
2021/08/21 04:02:21;;;;;;;14.60;9.38;;;;;;;16.42;95.10;101793.22;5088646;28;20135;-61
2021/08/21 04:04:47;;;;;;;15.30;9.68;;;;;;;16.58;95.00;101795.06;5095788;28;20052;-60
2021/08/21 04:07:15;;;;;;;15.13;10.10;;;;;;;16.63;94.84;101797.25;5084232;28;20700;-61
2021/08/21 04:09:42;;;;;;;14.95;10.68;;;;;;;16.55;96.15;101801.53;5095397;28;20040;-61
2021/08/21 04:12:09;;;;;;;15.85;10.02;;;;;;;16.74;95.69;101799.56;5090071;28;20538;-58
2021/08/21 04:14:36;;;;;;;14.48;10.20;;;;;;;16.71;95.56;101794.63;5093436;28;20083;-61
2021/08/21 04:17:02;;;;;;;18.92;10.55;;;;;;;16.51;97.33;101799.38;5084833;28;20134;-60
2021/08/21 04:19:29;;;;;;;16.48;10.20;;;;;;;16.42;98.58;101798.50;5091878;28;20138;-60
2021/08/21 04:21:55;;;;;;;15.77;10.07;;;;;;;16.40;98.62;101800.50;5083871;28;20167;-61
2021/08/21 04:24:22;;;;;;;14.98;9.98;;;;;;;16.47;98.08;101795.41;5086517;28;20115;-61
2021/08/21 04:26:48;;;;;;;17.63;10.25;;;;;;;16.50;98.39;101795.06;5094519;28;20052;-61
2021/08/21 04:29:15;;;;;;;16.13;10.35;;;;;;;16.47;99.27;101795.41;5088643;28;20055;-61
2021/08/21 04:31:41;;;;;;;16.38;11.00;;;;;;;16.52;99.46;101791.25;5090070;28;20048;-59
2021/08/21 04:34:08;;;;;;;14.63;10.38;;;;;;;16.56;98.97;101794.41;5083498;28;20170;-59
2021/08/21 04:36:34;;;;;;;15.25;10.57;;;;;;;16.60;99.42;101796.59;5091021;28;20159;-60
2021/08/21 04:39:01;;;;;;;19.25;11.15;;;;;;;16.58;99.66;101795.94;5096171;28;20052;-62
2021/08/21 04:41:27;;;;;;;21.38;11.43;;;;;;;16.69;98.84;101796.59;5071658;28;20120;-61
2021/08/21 04:43:54;;;;;;;17.63;11.82;;;;;;;16.66;99.82;101797.75;5095613;28;20146;-61
2021/08/21 04:46:20;;;;;;;17.98;10.60;;;;;;;16.69;99.76;101799.25;5095969;28;20476;-61
2021/08/21 04:48:47;;;;;;;19.33;10.90;;;;;;;16.73;100.00;101795.28;5092425;28;20055;-61
2021/08/21 04:51:14;;;;;;;17.98;11.65;;;;;;;16.74;100.00;101803.06;5092478;28;20135;-61
2021/08/21 04:53:40;;;;;;;18.90;12.05;;;;;;;16.93;100.00;101803.78;5083033;28;20094;-61
2021/08/21 04:56:07;;;;;;;17.70;12.13;;;;;;;16.92;100.00;101802.97;5097373;27;20147;-61
2021/08/21 04:58:33;;;;;;;18.10;13.38;;;;;;;16.96;100.00;101808.75;5082732;28;20048;-61
2021/08/21 05:00:59;;;;;;;20.70;13.30;;;;;;;17.04;99.53;101808.75;5092914;28;20074;-61
2021/08/21 05:03:26;;;;;;;18.88;13.20;;;;;;;17.05;99.42;101810.41;5077487;28;20058;-62
2021/08/21 05:05:53;;;;;;;19.45;13.35;;;;;;;17.10;99.08;101809.94;5099899;28;20138;-61
2021/08/21 05:08:19;;;;;;;20.45;13.68;;;;;;;17.14;98.76;101804.13;5092114;28;20456;-61
2021/08/21 05:10:46;;;;;;;19.02;13.75;;;;;;;17.16;99.17;101801.31;5095784;28;20534;-61
2021/08/21 05:13:12;;;;;;;21.00;12.70;;;;;;;17.16;98.36;101804.78;5079199;28;20083;-60
2021/08/21 05:15:39;;;;;;;19.25;13.80;;;;;;;17.13;98.45;101810.44;5086546;28;20052;-60
2021/08/21 05:18:06;;;;;;;20.73;12.80;;;;;;;17.26;98.29;101804.63;5089195;28;20514;-61
2021/08/21 05:21:36;;;;;;;24.05;14.02;;;;;;;17.29;98.03;101806.09;5088866;28;20079;-61
2021/08/21 05:23:29;;;;;;;22.73;14.15;;;;;;;17.18;98.88;101807.28;5092126;28;20060;-61
2021/08/21 05:25:56;;;;;;;22.02;14.68;;;;;;;17.12;100.00;101808.75;5092206;27;20044;-60
2021/08/21 05:28:22;;;;;;;21.65;13.70;;;;;;;17.15;99.48;101811.09;5082504;28;20131;-61
2021/08/21 05:30:49;;;;;;;23.73;14.25;;;;;;;17.19;99.80;101811.59;5090882;28;20054;-60
2021/08/21 05:33:17;;;;;;;21.00;14.02;;;;;;;17.20;99.38;101807.94;5085116;28;20140;-62
2021/08/21 05:35:47;;;;;;;23.15;14.02;;;;;;;17.35;98.24;101810.75;5097248;28;20554;-61
2021/08/21 05:38:14;;;;;;;22.13;14.52;;;;;;;17.32;98.19;101809.25;5083190;28;20134;-62
2021/08/21 05:40:40;;;;;;;23.02;14.68;;;;;;;17.36;97.79;101813.22;5096954;28;20130;-62
2021/08/21 05:43:07;;;;;;;25.00;14.75;;;;;;;17.31;98.70;101807.59;5064690;28;20052;-62
2021/08/21 05:45:34;;;;;;;22.17;14.98;;;;;;;17.24;99.01;101809.25;5094141;28;20503;-61
2021/08/21 05:48:00;;;;;;;25.48;15.95;;;;;;;17.48;98.40;101818.19;5097913;28;20581;-61
2021/08/21 05:50:27;;;;;;;24.30;14.88;;;;;;;17.36;98.37;101812.41;5096686;28;20082;-61
2021/08/21 05:52:54;;;;;;;24.00;15.55;;;;;;;17.29;100.00;101814.91;5094503;28;20109;-62
2021/08/21 05:55:20;;;;;;;28.38;14.98;;;;;;;17.28;100.00;101821.19;5088132;27;20150;-61
2021/08/21 05:57:47;;;;;;;26.20;15.77;;;;;;;17.41;100.00;101815.38;5088793;28;20501;-62
2021/08/21 06:00:14;;;;;;;25.65;16.00;;;;;;;17.43;99.51;101823.19;5082524;28;20066;-62
2021/08/21 06:02:42;;;;;;;25.85;16.98;;;;;;;17.68;97.91;101823.97;5100806;28;20105;-60
2021/08/21 06:05:11;;;;;;;27.10;16.75;;;;;;;17.68;97.41;101823.97;5095242;28;20044;-61
2021/08/21 06:07:39;;;;;;;34.60;17.15;;;;;;;17.52;99.74;101825.66;5101106;28;20531;-61
2021/08/21 06:10:06;;;;;;;30.83;17.52;;;;;;;17.64;99.72;101825.28;5073748;28;20108;-61
2021/08/21 06:12:33;;;;;;;31.33;18.35;;;;;;;17.64;100.00;101831.44;5082477;28;20109;-62
2021/08/21 06:15:00;;;;;;;32.30;18.52;;;;;;;17.78;99.71;101824.63;5089005;28;20054;-62
2021/08/21 06:17:26;;;;;;;33.15;18.23;;;;;;;17.85;98.71;101830.09;5090723;28;20071;-62
2021/08/21 06:19:56;;;;;;;33.40;17.23;;;;;;;18.05;97.18;101831.34;5093768;28;20431;-61
2021/08/21 06:22:23;;;;;;;36.70;18.95;;;;;;;18.02;97.89;101834.38;5089370;28;20079;-62
2021/08/21 06:24:50;;;;;;;32.50;19.35;;;;;;;18.17;97.02;101832.66;5081565;28;20574;-62
2021/08/21 06:27:16;;;;;;;34.55;18.38;;;;;;;18.24;97.01;101845.25;5093865;27;20062;-62
2021/08/21 06:29:43;;;;;;;35.42;19.70;;;;;;;18.24;97.12;101835.44;5089615;28;20138;-62
2021/08/21 06:32:09;;;;;;;32.00;19.00;;;;;;;18.25;97.22;101837.09;5096580;28;20433;-61
2021/08/21 06:34:36;;;;;;;37.40;20.45;;;;;;;18.44;96.89;101841.16;5079573;28;20080;-62
2021/08/21 06:37:05;;;;;;;35.25;19.70;;;;;;;18.48;96.43;101838.97;5099067;28;20126;-62
2021/08/21 06:39:33;;;;;;;37.63;20.58;;;;;;;18.51;96.58;101839.47;5084066;28;20051;-62
2021/08/21 06:42:00;;;;;;;37.92;20.67;;;;;;;18.53;96.58;101845.44;5090130;28;20489;-62
2021/08/21 06:44:27;;;;;;;38.65;21.25;;;;;;;18.49;97.51;101844.13;5099158;28;20044;-62
2021/08/21 06:46:53;;;;;;;37.67;21.58;;;;;;;18.65;96.78;101843.22;5085433;28;20143;-62
2021/08/21 06:49:20;;;;;;;43.05;21.35;;;;;;;18.58;97.79;101850.22;5098781;28;20404;-62
2021/08/21 06:51:46;;;;;;;44.28;22.85;;;;;;;18.64;97.52;101841.56;5087779;27;20577;-61
2021/08/21 06:54:14;;;;;;;40.78;20.50;;;;;;;18.74;96.63;101841.34;5091748;28;20502;-61
2021/08/21 06:56:41;;;;;;;42.85;22.85;;;;;;;18.75;96.81;101846.47;5084945;28;20079;-61
2021/08/21 06:59:08;;;;;;;48.88;22.25;;;;;;;18.70;97.36;101843.53;5096221;28;20106;-58
2021/08/21 07:01:36;;;;;;;48.53;24.38;;;;;;;18.81;97.07;101839.66;5090883;28;20352;-62
2021/08/21 07:04:03;;;;;;;45.92;24.52;;;;;;;19.00;95.72;101833.06;5085243;28;20048;-62
2021/08/21 07:06:30;;;;;;;46.75;23.38;;;;;;;19.12;94.75;101836.13;5083919;28;20253;-61
2021/08/21 07:08:57;;;;;;;52.08;23.83;;;;;;;19.24;94.55;101832.03;5086004;28;20102;-62
2021/08/21 07:11:23;;;;;;;48.15;24.70;;;;;;;19.32;94.32;101839.13;5090993;28;20083;-61
2021/08/21 07:13:50;;;;;;;54.95;25.80;;;;;;;19.40;93.99;101833.72;5089841;28;20047;-61
2021/08/21 07:16:16;;;;;;;50.97;25.40;;;;;;;19.44;93.06;101834.19;5092953;28;20123;-62
2021/08/21 07:18:43;;;;;;;46.65;24.77;;;;;;;19.47;92.60;101836.50;5091325;28;20126;-61
2021/08/21 07:21:09;;;;;;;61.17;25.00;;;;;;;19.43;92.37;101837.88;5070079;28;20605;-62
2021/08/21 07:23:37;;;;;;;54.58;26.00;;;;;;;19.54;92.33;101843.59;5089221;28;20075;-61
2021/08/21 07:26:03;;;;;;;57.60;27.42;;;;;;;19.58;92.88;101841.38;5087722;27;20083;-61
2021/08/21 07:28:30;;;;;;;51.53;27.55;;;;;;;19.55;93.11;101837.25;5096561;28;20095;-61
2021/08/21 07:30:57;;;;;;;57.33;28.90;;;;;;;19.57;93.70;101834.41;5081274;28;20126;-62
2021/08/21 07:33:23;;;;;;;60.45;27.52;;;;;;;19.72;92.86;101827.28;5091880;28;20092;-61
2021/08/21 07:35:50;;;;;;;59.80;26.95;;;;;;;20.02;90.94;101832.63;5088188;28;20756;-62
2021/08/21 07:38:16;;;;;;;58.53;28.63;;;;;;;20.03;90.35;101828.13;5088291;28;20150;-60
2021/08/21 07:40:43;;;;;;;54.55;26.08;;;;;;;19.86;90.23;101835.47;5092521;28;20139;-61
2021/08/21 07:43:09;;;;;;;54.55;27.98;;;;;;;19.84;90.80;101835.66;5088788;28;20134;-60
2021/08/21 07:45:36;;;;;;;59.17;27.00;;;;;;;19.84;90.76;101832.19;5083513;28;20083;-61
2021/08/21 07:48:03;;;;;;;59.70;28.50;;;;;;;19.85;90.75;101829.31;5079617;28;20701;-61
2021/08/21 07:50:29;;;;;;;57.20;27.45;;;;;;;19.98;90.94;101831.34;5082620;28;20586;-61
2021/08/21 07:52:56;;;;;;;64.32;27.90;;;;;;;20.08;89.87;101831.06;5096756;27;20079;-62
2021/08/21 07:55:22;;;;;;;56.70;28.63;;;;;;;20.07;90.56;101830.25;5088110;28;20079;-61
2021/08/21 07:57:49;;;;;;;54.50;28.15;;;;;;;20.13;90.15;101826.84;5096242;28;20139;-61
2021/08/21 08:00:16;;;;;;;63.58;27.13;;;;;;;20.18;90.58;101822.78;5082265;28;20788;-62
2021/08/21 08:02:44;;;;;;;54.13;27.17;;;;;;;20.29;89.51;101828.47;5089241;28;20047;-62
2021/08/21 08:05:11;;;;;;;57.33;28.55;;;;;;;20.44;88.28;101825.75;5088368;28;20415;-62
2021/08/21 08:07:38;;;;;;;62.17;27.90;;;;;;;20.62;87.74;101821.88;5087618;28;20123;-62
2021/08/21 08:10:05;;;;;;;51.67;26.65;;;;;;;20.70;86.64;101829.78;5085811;28;20075;-61
2021/08/21 08:12:32;;;;;;;55.00;26.70;;;;;;;20.90;84.82;101836.13;5088640;28;20058;-62
2021/08/21 08:14:58;;;;;;;56.42;26.77;;;;;;;21.01;84.54;101829.47;5099319;28;20054;-62
2021/08/21 08:17:25;;;;;;;54.75;27.55;;;;;;;21.48;81.69;101829.88;5078573;28;20480;-62
2021/08/21 08:19:51;;;;;;;60.95;26.98;;;;;;;21.25;81.15;101828.25;5095911;28;20587;-61
2021/08/21 08:22:19;;;;;;;58.60;25.45;;;;;;;21.36;81.85;101834.88;5086099;28;20130;-62
2021/08/21 08:24:46;;;;;;;;;;;;;;;21.46;81.47;101827.41;5097399;28;20563;-61
2021/08/21 08:27:15;;;;;;;61.00;28.00;;;;;;;21.85;79.49;101828.66;5102084;27;20361;-61
2021/08/21 08:29:42;;;;;;;52.42;24.23;;;;;;;22.04;78.51;101827.13;5092239;28;20090;-62
2021/08/21 08:32:08;;;;;;;57.33;27.05;;;;;;;22.22;78.77;101839.13;5097879;27;20055;-61
2021/08/21 08:34:35;;;;;;;62.80;30.23;;;;;;;22.41;77.49;101827.72;5091426;28;20170;-61
2021/08/21 08:37:01;;;;;;;58.83;30.55;;;;;;;22.80;76.07;101834.22;5105313;28;20138;-62
2021/08/21 08:39:28;;;;;;;65.32;30.80;;;;;;;23.05;73.63;101825.63;5093492;28;20551;-61
2021/08/21 08:41:56;;;;;;;56.90;28.58;;;;;;;22.62;76.46;101845.50;5103281;28;20043;-62
2021/08/21 08:44:24;;;;;;;65.07;31.48;;;;;;;22.43;75.41;101839.06;5092460;28;20134;-62
2021/08/21 08:46:51;;;;;;;58.10;29.42;;;;;;;22.43;76.62;101835.56;5100777;28;20561;-62
2021/08/21 08:49:19;;;;;;;58.20;31.23;;;;;;;22.36;77.75;101840.03;5100590;28;20455;-62
2021/08/21 08:51:45;;;;;;;64.93;30.30;;;;;;;22.45;78.62;101837.00;5097213;28;20059;-63
2021/08/21 08:54:12;;;;;;;60.20;30.75;;;;;;;22.58;77.74;101836.22;5103855;28;20131;-63
2021/08/21 08:56:38;;;;;;;63.58;34.05;;;;;;;22.65;77.29;101838.91;5095909;28;20105;-62
2021/08/21 08:59:04;;;;;;;64.93;33.40;;;;;;;22.70;76.74;101839.94;5096198;28;20075;-61
2021/08/21 09:01:31;;;;;;;73.28;37.65;;;;;;;22.65;75.80;101838.91;5078839;28;20047;-62
2021/08/21 09:04:14;;;;;;;82.13;38.70;;;;;;;23.35;74.29;101834.06;5099219;28;20056;-62
2021/08/21 09:06:41;;;;;;;69.53;35.92;;;;;;;24.20;71.02;101834.09;5101395;28;20696;-62
2021/08/21 09:09:18;;;;;;;61.40;33.05;;;;;;;24.20;69.99;101833.28;5092637;28;20988;-62
2021/08/21 09:11:51;;;;;;;67.72;34.90;;;;;;;24.02;70.39;101836.66;5093681;28;20128;-62
2021/08/21 09:14:30;;;;;;;67.32;33.67;;;;;;;24.04;70.07;101843.44;5084877;28;20146;-62
2021/08/21 09:17:20;;;;;;;65.68;32.17;;;;;;;23.90;70.90;101833.81;5101352;28;20138;-62
2021/08/21 09:19:48;;;;;;;66.40;32.05;;;;;;;23.61;72.43;101832.38;5090078;28;20116;-62
2021/08/21 09:22:15;;;;;;;52.75;25.17;;;;;;;23.94;70.87;101834.22;5098498;28;20359;-62
2021/08/21 09:24:42;;;;;;;61.28;30.35;;;;;;;23.82;71.36;101828.69;5095471;27;20882;-62
2021/08/21 09:27:15;;;;;;;55.35;29.63;;;;;;;24.11;71.40;101821.16;5102423;27;20488;-62
2021/08/21 09:29:41;;;;;;;57.15;30.75;;;;;;;24.27;69.61;101818.81;5103649;27;20135;-62
2021/08/21 09:32:09;;;;;;;55.78;29.10;;;;;;;24.52;69.53;101825.31;5094255;27;20476;-62
2021/08/21 09:34:37;;;;;;;54.17;28.70;;;;;;;24.51;68.02;101829.88;5103150;27;20453;-62
2021/08/21 09:37:07;;;;;;;50.63;26.13;;;;;;;24.67;66.53;101823.97;5099487;27;20126;-63
2021/08/21 09:39:39;;;;;;;46.17;24.15;;;;;;;24.82;64.37;101818.31;5096556;27;20135;-62
2021/08/21 09:42:08;;;;;;;43.28;23.63;;;;;;;24.93;65.22;101822.16;5073849;27;20075;-62
2021/08/21 09:44:42;;;;;;;45.15;25.75;;;;;;;24.94;64.38;101813.06;5103075;27;20083;-62
2021/08/21 09:47:08;;;;;;;43.83;25.42;;;;;;;25.39;64.26;101820.97;5087820;28;20087;-62
2021/08/21 09:49:34;;;;;;;47.33;24.00;;;;;;;25.68;63.84;101815.09;5101439;27;20104;-62
2021/08/21 09:52:06;;;;;;;41.67;24.92;;;;;;;25.76;64.00;101818.34;5107585;27;20073;-61
2021/08/21 09:54:33;;;;;;;42.30;22.92;;;;;;;25.76;61.08;101806.78;5095015;27;20114;-61
2021/08/21 09:56:59;;;;;;;38.38;21.90;;;;;;;25.95;61.54;101808.44;5104681;27;20051;-62
2021/08/21 09:59:40;;;;;;;44.38;22.90;;;;;;;26.02;61.20;101805.66;5097578;27;20123;-60
2021/08/21 10:02:13;;;;;;;41.33;21.83;;;;;;;26.07;61.63;101802.28;5102614;27;20043;-62
2021/08/21 10:04:43;;;;;;;38.55;21.05;;;;;;;26.39;61.02;101803.72;5097005;27;20146;-62
2021/08/21 10:07:17;;;;;;;35.05;20.23;;;;;;;26.74;60.83;101808.41;5096479;28;20444;-62
2021/08/21 10:09:44;;;;;;;29.35;16.83;;;;;;;27.21;60.30;101807.66;5095920;27;20043;-62
2021/08/21 10:12:13;;;;;;;44.92;21.42;;;;;;;27.28;57.30;101803.00;5094199;28;20048;-62
2021/08/21 10:14:42;;;;;;;38.22;18.95;;;;;;;27.10;59.18;101806.59;5079927;28;20489;-61
2021/08/21 10:17:09;;;;;;;27.00;16.38;;;;;;;27.39;58.69;101799.47;5095931;27;20048;-62
2021/08/21 10:19:37;;;;;;;27.30;16.45;;;;;;;27.84;55.22;101800.69;5099806;27;20150;-62
2021/08/21 10:22:04;;;;;;;29.67;15.75;;;;;;;28.25;54.24;101801.53;5085033;28;20566;-62
2021/08/21 10:24:36;;;;;;;25.23;15.85;;;;;;;28.47;53.49;101798.97;5097608;27;21006;-62
2021/08/21 10:27:15;;;;;;;34.38;16.75;;;;;;;28.54;52.76;101796.97;5092851;28;20080;-63
2021/08/21 10:30:08;;;;;;;24.95;14.70;;;;;;;28.74;51.23;101801.06;5098186;28;20051;-62
2021/08/21 10:32:38;;;;;;;26.02;14.90;;;;;;;28.74;52.37;101790.28;5101267;27;20467;-62
2021/08/21 10:35:05;;;;;;;23.90;13.93;;;;;;;28.37;54.19;101788.81;5089316;28;20071;-62
2021/08/21 10:37:53;;;;;;;22.38;13.63;;;;;;;28.75;52.46;101798.09;5097355;27;20051;-63
2021/08/21 10:40:27;;;;;;;22.88;12.98;;;;;;;29.10;53.73;101793.53;5091668;27;20054;-62
2021/08/21 10:42:58;;;;;;;25.50;15.18;;;;;;;29.34;50.31;101789.59;5099898;27;20134;-62
2021/08/21 10:45:40;;;;;;;29.48;15.88;;;;;;;28.72;53.60;101795.09;5090901;27;20130;-61
2021/08/21 10:48:07;;;;;;;27.45;17.20;;;;;;;28.77;53.52;101793.28;5103771;27;20058;-62
2021/08/21 10:50:35;;;;;;;21.02;12.75;;;;;;;29.01;51.21;101792.31;5089230;27;20140;-63
2021/08/21 10:53:07;;;;;;;20.48;11.73;;;;;;;28.85;49.06;101791.25;5092428;27;20509;-61
2021/08/21 10:55:37;;;;;;;17.02;10.25;;;;;;;28.62;53.09;101793.06;5080046;27;20456;-62
2021/08/21 10:58:09;;;;;;;27.45;15.43;;;;;;;28.63;53.09;101789.28;5079563;28;20051;-62
2021/08/21 11:00:39;;;;;;;22.77;13.05;;;;;;;28.61;51.25;101777.09;5088746;27;20135;-63
2021/08/21 11:03:27;;;;;;;20.88;12.25;;;;;;;28.27;51.17;101777.84;5090630;27;20048;-63
2021/08/21 11:06:07;;;;;;;21.30;13.52;;;;;;;28.41;52.50;101772.94;5060873;28;20056;-62
2021/08/21 11:08:33;;;;;;;24.67;13.98;;;;;;;28.38;52.26;101770.72;5093183;27;20094;-62
2021/08/21 11:11:26;;;;;;;17.55;11.27;;;;;;;28.67;56.42;101776.13;5098873;27;20051;-63
2021/08/21 11:13:59;;;;;;;17.60;10.77;;;;;;;29.36;52.08;101776.66;5072127;27;20079;-62